createdAt,value
2024-01-24T00:02:05.016Z,-2.29
2024-01-24T00:05:29.526Z,-2.39
2024-01-24T00:08:52.291Z,-2.31
2024-01-24T00:12:18.034Z,-2.14
2024-01-24T00:15:42.874Z,-1.94
2024-01-24T00:19:07.056Z,-2.10
2024-01-24T00:22:36.133Z,-2.24
2024-01-24T00:25:59.076Z,-2.52
2024-01-24T00:29:21.679Z,-2.47
2024-01-24T00:32:44.252Z,-2.42
2024-01-24T00:36:11.547Z,-2.10
2024-01-24T00:39:34.648Z,-1.76
2024-01-24T00:42:57.085Z,-1.73
2024-01-24T00:46:19.652Z,-2.29
2024-01-24T00:49:42.457Z,-2.13
2024-01-24T00:53:11.504Z,-2.06
2024-01-24T00:56:36.739Z,-2.10
2024-01-24T01:00:07.530Z,-2.05
2024-01-24T01:03:30.297Z,-2.22
2024-01-24T01:06:54.975Z,-2.74
2024-01-24T01:10:22.132Z,-2.24
2024-01-24T01:13:44.972Z,-2.62
2024-01-24T01:17:07.850Z,-2.61
2024-01-24T01:20:30.288Z,-2.70
2024-01-24T01:23:52.884Z,-2.38
2024-01-24T01:27:19.556Z,-2.49
2024-01-24T01:30:41.923Z,-2.38
2024-01-24T01:34:05.495Z,-2.44
2024-01-24T01:37:31.884Z,-2.95
2024-01-24T01:40:55.043Z,-2.67
2024-01-24T01:44:19.090Z,-2.60
2024-01-24T01:47:42.161Z,-2.68
2024-01-24T01:51:04.848Z,-2.62
2024-01-24T01:54:30.523Z,-2.70
2024-01-24T01:57:53.057Z,-2.83
2024-01-24T02:01:17.918Z,-2.92
2024-01-24T02:04:41.387Z,-2.96
2024-01-24T02:08:04.192Z,-3.18
2024-01-24T02:11:26.746Z,-2.94
2024-01-24T02:14:52.176Z,-2.48
2024-01-24T02:18:16.318Z,-2.58
2024-01-24T02:21:39.449Z,-2.79
2024-01-24T02:25:03.660Z,-2.99
2024-01-24T02:28:26.377Z,-3.39
2024-01-24T02:31:48.945Z,-3.18
2024-01-24T02:35:11.408Z,-3.21
2024-01-24T02:38:34.333Z,-3.32
2024-01-24T02:41:58.192Z,-3.04
2024-01-24T02:45:23.710Z,-3.16
2024-01-24T02:48:46.635Z,-2.86
2024-01-24T02:52:09.231Z,-2.90
2024-01-24T02:55:34.459Z,-2.79
2024-01-24T02:58:58.340Z,-2.81
2024-01-24T03:02:20.934Z,-3.11
2024-01-24T03:05:43.939Z,-3.19
2024-01-24T03:09:06.825Z,-2.66
2024-01-24T03:12:29.451Z,-2.82
2024-01-24T03:15:53.725Z,-3.00
2024-01-24T03:19:16.688Z,-2.95
2024-01-24T03:22:39.793Z,-2.79
2024-01-24T03:26:02.196Z,-3.20
2024-01-24T03:29:24.891Z,-3.54
2024-01-24T03:32:48.949Z,-3.64
2024-01-24T03:36:12.061Z,-3.14
2024-01-24T03:39:37.394Z,-3.25
2024-01-24T03:43:02.537Z,-3.55
2024-01-24T03:46:25.276Z,-3.53
2024-01-24T03:49:50.856Z,-3.54
2024-01-24T03:53:13.471Z,-3.20
2024-01-24T03:56:36.320Z,-3.05
2024-01-24T04:00:01.783Z,-2.91
2024-01-24T04:03:34.751Z,-2.79
2024-01-24T04:06:59.333Z,-2.44
2024-01-24T04:10:21.741Z,-2.53
2024-01-24T04:13:47.020Z,-2.47
2024-01-24T04:17:09.852Z,-2.42
2024-01-24T04:20:32.513Z,-2.74
2024-01-24T04:23:56.515Z,-2.73
2024-01-24T04:27:22.287Z,-2.46
2024-01-24T04:30:45.156Z,-2.39
2024-01-24T04:34:13.477Z,-2.37
2024-01-24T04:37:35.982Z,-2.72
2024-01-24T04:41:06.538Z,-2.41
2024-01-24T04:44:29.367Z,-2.44
2024-01-24T04:47:55.243Z,-2.25
2024-01-24T04:51:20.870Z,-2.01
2024-01-24T04:54:44.308Z,-1.79
2024-01-24T04:58:08.481Z,-1.80
2024-01-24T05:01:32.435Z,-1.84
2024-01-24T05:04:54.827Z,-1.60
2024-01-24T05:08:17.491Z,-1.52
2024-01-24T05:11:43.192Z,-1.80
2024-01-24T05:15:09.798Z,-1.42
2024-01-24T05:18:32.881Z,-1.20
2024-01-24T05:21:56.015Z,-1.15
2024-01-24T05:25:18.790Z,-1.15
2024-01-24T05:28:42.382Z,-0.76
2024-01-24T05:32:07.147Z,-0.99
2024-01-24T05:35:31.803Z,-0.72
2024-01-24T05:38:56.058Z,-0.57
2024-01-24T05:42:19.115Z,-0.45
2024-01-24T05:45:42.137Z,-0.25
2024-01-24T05:49:06.527Z,-0.53
2024-01-24T05:52:32.020Z,-0.26
2024-01-24T05:55:54.841Z,-0.05
2024-01-24T05:59:17.475Z,-0.21
2024-01-24T06:02:40.182Z,0.10
2024-01-24T06:06:04.412Z,0.03
2024-01-24T06:09:30.245Z,-0.15
2024-01-24T06:12:52.942Z,0.10
2024-01-24T06:16:15.461Z,-0.02
2024-01-24T06:19:38.305Z,0.02
2024-01-24T06:23:02.415Z,0.16
2024-01-24T06:26:25.249Z,0.13
2024-01-24T06:30:17.263Z,0.14
2024-01-24T06:33:33.659Z,0.19
2024-01-24T06:36:58.759Z,0.15
2024-01-24T06:40:23.398Z,-0.09
2024-01-24T06:43:45.831Z,0.00
2024-01-24T06:47:08.804Z,-0.07
2024-01-24T06:50:34.742Z,-0.03
2024-01-24T06:53:57.363Z,-0.03
2024-01-24T06:57:21.533Z,0.23
2024-01-24T07:00:47.839Z,0.15
2024-01-24T07:04:11.319Z,0.28
2024-01-24T07:07:34.455Z,0.20
2024-01-24T07:10:57.109Z,0.22
2024-01-24T07:14:20.935Z,0.31
2024-01-24T07:17:43.642Z,0.50
2024-01-24T07:21:07.970Z,0.71
2024-01-24T07:24:33.100Z,0.77
2024-01-24T07:27:55.910Z,0.82
2024-01-24T07:31:20.671Z,0.95
2024-01-24T07:34:48.455Z,0.97
2024-01-24T07:38:11.399Z,1.28
2024-01-24T07:41:34.135Z,1.44
2024-01-24T07:44:56.800Z,1.45
2024-01-24T07:48:21.515Z,1.77
2024-01-24T07:51:48.310Z,1.83
2024-01-24T07:55:17.991Z,1.81
2024-01-24T07:58:49.193Z,2.05
2024-01-24T08:02:12.445Z,2.40
2024-01-24T08:05:36.761Z,2.55
2024-01-24T08:09:05.065Z,2.68
2024-01-24T08:12:27.706Z,2.94
2024-01-24T08:15:50.468Z,3.06
2024-01-24T08:19:14.021Z,3.06
2024-01-24T08:22:38.348Z,2.89
2024-01-24T08:26:00.987Z,2.95
2024-01-24T08:29:36.084Z,3.23
2024-01-24T08:33:03.544Z,3.20
2024-01-24T08:36:39.586Z,3.19
2024-01-24T08:40:04.184Z,3.07
2024-01-24T08:43:26.456Z,2.98
2024-01-24T08:46:50.256Z,3.12
2024-01-24T08:50:15.921Z,3.01
2024-01-24T08:53:39.680Z,3.19
2024-01-24T08:57:05.093Z,3.21
2024-01-24T09:00:30.754Z,3.06
2024-01-24T09:03:54.649Z,3.17
2024-01-24T09:07:21.414Z,3.36
2024-01-24T09:10:44.092Z,3.28
2024-01-24T09:14:08.594Z,3.33
2024-01-24T09:17:31.408Z,3.15
2024-01-24T09:20:54.296Z,3.31
2024-01-24T09:24:16.949Z,3.17
2024-01-24T09:27:50.243Z,3.38
2024-01-24T09:31:14.440Z,3.25
2024-01-24T09:34:37.602Z,3.42
2024-01-24T09:38:03.415Z,3.23
2024-01-24T09:41:26.240Z,3.32
2024-01-24T09:44:49.553Z,3.15
2024-01-24T09:48:14.105Z,3.07
2024-01-24T09:51:36.860Z,3.33
2024-01-24T09:55:06.976Z,3.21
2024-01-24T09:58:34.060Z,3.52
2024-01-24T10:01:56.816Z,3.51
2024-01-24T10:05:22.544Z,3.46
2024-01-24T10:08:45.155Z,3.34
2024-01-24T10:12:09.648Z,3.42
2024-01-24T10:15:32.845Z,3.48
2024-01-24T10:18:58.853Z,3.56
2024-01-24T10:22:24.162Z,3.64
2024-01-24T10:25:46.891Z,3.65
2024-01-24T10:29:11.225Z,3.78
2024-01-24T10:32:36.118Z,3.95
2024-01-24T10:36:10.787Z,4.12
2024-01-24T10:39:42.138Z,4.31
2024-01-24T10:43:07.827Z,4.37
2024-01-24T10:46:30.665Z,4.49
2024-01-24T10:49:53.505Z,4.57
2024-01-24T10:53:16.906Z,4.55
2024-01-24T10:56:43.325Z,4.61
2024-01-24T11:00:12.914Z,4.48
2024-01-24T11:03:40.179Z,4.52
2024-01-24T11:07:07.286Z,4.54
2024-01-24T11:10:35.588Z,4.51
2024-01-24T11:14:02.948Z,4.58
2024-01-24T11:17:25.889Z,4.46
2024-01-24T11:20:49.175Z,4.52
2024-01-24T11:24:11.814Z,4.49
2024-01-24T11:27:36.254Z,4.55
2024-01-24T11:31:01.267Z,4.59
2024-01-24T11:34:24.659Z,4.37
2024-01-24T11:37:48.828Z,4.45
2024-01-24T11:41:25.743Z,4.58
2024-01-24T11:44:51.909Z,4.61
2024-01-24T11:48:16.272Z,4.55
2024-01-24T11:51:38.598Z,4.60
2024-01-24T11:55:01.784Z,4.74
2024-01-24T11:58:27.222Z,4.66
2024-01-24T12:01:51.252Z,4.82
2024-01-24T12:05:17.318Z,4.84
2024-01-24T12:08:42.571Z,4.60
2024-01-24T12:12:06.257Z,4.67
2024-01-24T12:15:31.670Z,4.76
2024-01-24T12:18:54.557Z,4.87
2024-01-24T12:22:19.268Z,4.79
2024-01-24T12:25:43.583Z,4.58
2024-01-24T12:29:08.524Z,4.50
2024-01-24T12:32:31.713Z,4.66
2024-01-24T12:35:55.158Z,4.57
2024-01-24T12:39:27.640Z,4.08
2024-01-24T12:42:51.096Z,3.96
2024-01-24T12:46:14.464Z,4.00
2024-01-24T12:49:40.551Z,3.84
2024-01-24T12:53:03.672Z,3.69
2024-01-24T12:56:28.243Z,3.67
2024-01-24T12:59:51.118Z,3.79
2024-01-24T13:03:15.806Z,3.85
2024-01-24T13:06:42.072Z,3.78
2024-01-24T13:10:07.185Z,3.72
2024-01-24T13:13:32.753Z,4.01
2024-01-24T13:17:08.090Z,3.88
2024-01-24T13:20:30.818Z,3.97
2024-01-24T13:23:53.826Z,3.95
2024-01-24T13:27:16.832Z,3.88
2024-01-24T13:30:45.130Z,4.00
2024-01-24T13:34:08.367Z,4.05
2024-01-24T13:37:39.743Z,4.01
2024-01-24T13:41:02.843Z,3.79
2024-01-24T13:44:25.273Z,3.63
2024-01-24T13:47:48.411Z,3.51
2024-01-24T13:51:12.048Z,3.36
2024-01-24T13:54:36.237Z,3.37
2024-01-24T13:58:01.564Z,3.34
2024-01-24T14:01:24.634Z,3.39
2024-01-24T14:04:47.919Z,3.39
2024-01-24T14:08:10.568Z,3.48
2024-01-24T14:11:35.906Z,3.45
2024-01-24T14:15:05.732Z,3.43
2024-01-24T14:18:34.788Z,3.56
2024-01-24T14:21:57.596Z,3.51
2024-01-24T14:25:21.183Z,4.02
2024-01-24T14:28:47.585Z,4.24
2024-01-24T14:32:13.058Z,4.04
2024-01-24T14:35:35.616Z,4.04
2024-01-24T14:38:59.920Z,3.84
2024-01-24T14:42:23.482Z,4.04
2024-01-24T14:45:48.132Z,3.85
2024-01-24T14:49:12.369Z,3.87
2024-01-24T14:52:38.420Z,3.73
2024-01-24T14:56:00.697Z,3.71
2024-01-24T14:59:26.585Z,3.76
2024-01-24T15:02:51.137Z,3.73
2024-01-24T15:06:13.985Z,3.70
2024-01-24T15:09:37.389Z,3.82
2024-01-24T15:13:00.255Z,3.80
2024-01-24T15:16:23.129Z,3.74
2024-01-24T15:19:49.783Z,3.72
2024-01-24T15:23:15.698Z,3.53
2024-01-24T15:26:38.426Z,3.54
2024-01-24T15:30:01.076Z,3.41
2024-01-24T15:33:23.824Z,3.36
2024-01-24T15:36:48.496Z,3.26
2024-01-24T15:40:15.885Z,3.38
2024-01-24T15:43:40.105Z,3.41
2024-01-24T15:47:07.220Z,3.56
2024-01-24T15:50:30.163Z,3.72
2024-01-24T15:53:54.704Z,3.69
2024-01-24T15:57:17.550Z,3.87
2024-01-24T16:00:43.540Z,3.80
2024-01-24T16:04:06.632Z,3.94
2024-01-24T16:07:31.918Z,3.88
2024-01-24T16:10:58.358Z,3.97
2024-01-24T16:14:23.316Z,4.11
2024-01-24T16:17:46.391Z,4.05
2024-01-24T16:21:08.951Z,4.03
2024-01-24T16:24:31.703Z,4.29
2024-01-24T16:27:56.019Z,4.57
2024-01-24T16:31:19.441Z,4.46
2024-01-24T16:34:42.001Z,4.52
2024-01-24T16:38:07.163Z,4.37
2024-01-24T16:41:29.461Z,4.24
2024-01-24T16:44:53.528Z,4.35
2024-01-24T16:48:15.906Z,4.32
2024-01-24T16:51:38.831Z,3.74
2024-01-24T16:55:01.727Z,3.77
2024-01-24T16:58:24.979Z,4.02
2024-01-24T17:01:51.180Z,3.79
2024-01-24T17:05:14.869Z,3.95
2024-01-24T17:08:40.276Z,3.68
2024-01-24T17:12:02.825Z,3.90
2024-01-24T17:15:25.513Z,3.87
2024-01-24T17:18:50.309Z,3.67
2024-01-24T17:22:15.832Z,4.00
2024-01-24T17:25:43.130Z,4.00
2024-01-24T17:29:05.923Z,4.14
2024-01-24T17:32:31.174Z,3.92
2024-01-24T17:35:55.549Z,4.04
2024-01-24T17:39:21.672Z,3.99
2024-01-24T17:42:44.544Z,3.96
2024-01-24T17:46:09.809Z,3.96
2024-01-24T17:49:33.043Z,4.33
2024-01-24T17:53:06.303Z,4.33
2024-01-24T17:56:29.528Z,3.87
2024-01-24T18:00:00.148Z,4.17
2024-01-24T18:03:26.380Z,3.95
2024-01-24T18:06:53.961Z,4.02
2024-01-24T18:10:21.732Z,3.75
2024-01-24T18:13:50.672Z,3.73
2024-01-24T18:17:18.623Z,3.57
2024-01-24T18:20:44.046Z,3.72
2024-01-24T18:24:13.358Z,3.55
2024-01-24T18:27:40.300Z,3.52
2024-01-24T18:31:05.858Z,3.43
2024-01-24T18:34:38.290Z,3.59
2024-01-24T18:38:05.863Z,3.49
2024-01-24T18:41:36.800Z,3.15
2024-01-24T18:45:08.474Z,3.66
2024-01-24T18:48:34.266Z,3.43
2024-01-24T18:52:02.583Z,3.38
2024-01-24T18:55:31.623Z,3.50
2024-01-24T18:58:57.828Z,3.68
2024-01-24T19:02:26.884Z,3.83
2024-01-24T19:05:52.600Z,4.07
2024-01-24T19:09:19.005Z,4.00
2024-01-24T19:12:45.557Z,4.01
2024-01-24T19:16:14.484Z,3.80
2024-01-24T19:19:44.601Z,3.82
2024-01-24T19:23:10.962Z,3.91
2024-01-24T19:26:37.569Z,3.72
2024-01-24T19:30:04.288Z,3.52
2024-01-24T19:33:30.318Z,3.67
2024-01-24T19:36:58.591Z,3.43
2024-01-24T19:40:24.730Z,3.31
2024-01-24T19:43:52.823Z,3.31
2024-01-24T19:47:18.824Z,3.34
2024-01-24T19:50:46.642Z,3.43
2024-01-24T19:54:15.484Z,3.51
2024-01-24T19:57:42.163Z,3.49
2024-01-24T20:01:10.642Z,3.55
2024-01-24T20:04:40.038Z,3.59
2024-01-24T20:08:07.524Z,3.50
2024-01-24T20:11:38.329Z,3.57
2024-01-24T20:15:04.486Z,3.51
2024-01-24T20:18:30.489Z,3.48
2024-01-24T20:21:55.982Z,3.57
2024-01-24T20:25:27.494Z,3.60
2024-01-24T20:28:54.633Z,3.49
2024-01-24T20:32:20.922Z,3.73
2024-01-24T20:35:46.423Z,3.68
2024-01-24T20:39:13.036Z,3.42
2024-01-24T20:42:38.170Z,3.09
2024-01-24T20:46:05.732Z,2.88
2024-01-24T20:49:30.996Z,2.79
2024-01-24T20:52:56.588Z,2.47
2024-01-24T20:56:24.516Z,2.54
2024-01-24T20:59:50.899Z,2.42
2024-01-24T21:03:20.981Z,2.62
2024-01-24T21:06:49.474Z,2.41
2024-01-24T21:10:17.872Z,2.20
2024-01-24T21:13:42.437Z,2.04
2024-01-24T21:17:08.918Z,2.34
2024-01-24T21:20:34.108Z,2.40
2024-01-24T21:24:02.856Z,2.24
2024-01-24T21:27:32.594Z,2.28
2024-01-24T21:30:56.117Z,2.13
2024-01-24T21:34:19.393Z,1.77
2024-01-24T21:37:43.351Z,1.98
2024-01-24T21:41:07.756Z,2.10
2024-01-24T21:44:30.186Z,1.63
2024-01-24T21:47:52.890Z,1.36
2024-01-24T21:51:15.688Z,1.56
2024-01-24T21:54:41.031Z,1.70
2024-01-24T21:58:05.940Z,2.01
2024-01-24T22:01:34.211Z,1.74
2024-01-24T22:04:56.802Z,1.64
2024-01-24T22:08:21.091Z,1.50
2024-01-24T22:11:45.094Z,1.43
2024-01-24T22:15:09.364Z,1.47
2024-01-24T22:18:40.934Z,1.70
2024-01-24T22:22:09.988Z,1.39
2024-01-24T22:25:32.874Z,1.32
2024-01-24T22:28:56.890Z,1.44
2024-01-24T22:32:19.756Z,1.35
2024-01-24T22:35:43.329Z,1.66
2024-01-24T22:39:08.393Z,1.30
2024-01-24T22:42:31.194Z,1.29
2024-01-24T22:45:55.509Z,1.50
2024-01-24T22:49:19.148Z,1.85
2024-01-24T22:52:42.471Z,2.42
2024-01-24T22:56:05.589Z,2.12
2024-01-24T22:59:28.805Z,2.40
2024-01-24T23:02:53.039Z,2.74
2024-01-24T23:06:15.973Z,2.69
2024-01-24T23:09:38.778Z,2.45
2024-01-24T23:13:03.720Z,2.70
2024-01-24T23:16:25.997Z,2.63
2024-01-24T23:19:53.655Z,2.84
2024-01-24T23:23:16.036Z,3.09
2024-01-24T23:26:43.482Z,3.67
2024-01-24T23:30:12.603Z,4.15
2024-01-24T23:33:36.113Z,4.39
2024-01-24T23:37:00.505Z,4.63
2024-01-24T23:40:25.715Z,4.71
2024-01-24T23:43:48.317Z,4.93
2024-01-24T23:47:10.980Z,5.21
2024-01-24T23:50:33.992Z,5.48
2024-01-24T23:54:00.656Z,5.73
2024-01-24T23:57:27.362Z,5.95
